Time;durP1;ratioP1;P1;durP2;ratioP2;P2;SDS_P1;SDS_P2;PMS_P1;PMS_P2;Temp;Humidity;BMP_temperature;BMP_pressure;BME280_temperature;BME280_humidity;BME280_pressure;Samples;Min_cycle;Max_cycle;Signal;HPM_P1;HPM_P2
2021/03/24 00:01:31;;;;;;;70.03;34.22;;;6.40;99.90;;;;;;5081876;28;20094;-71
2021/03/24 00:03:57;;;;;;;71.43;34.38;;;6.40;99.90;;;;;;5087685;28;20415;-72
2021/03/24 00:06:23;;;;;;;71.95;34.88;;;6.40;99.90;;;;;;5061551;28;20032;-72
2021/03/24 00:08:48;;;;;;;72.05;34.83;;;6.40;99.90;;;;;;5091414;28;20069;-70
2021/03/24 00:11:15;;;;;;;72.20;34.42;;;6.30;99.90;;;;;;5081610;28;20099;-72
2021/03/24 00:13:42;;;;;;;72.90;34.85;;;6.30;99.90;;;;;;5083938;28;20024;-70
2021/03/24 00:16:08;;;;;;;73.00;34.92;;;6.30;99.90;;;;;;5088178;28;20128;-74
2021/03/24 00:18:34;;;;;;;75.25;35.25;;;6.40;99.90;;;;;;5090193;28;20032;-70
2021/03/24 00:21:01;;;;;;;74.70;35.28;;;6.30;99.90;;;;;;5085917;28;20123;-71
2021/03/24 00:23:27;;;;;;;72.88;34.63;;;6.30;99.90;;;;;;5087659;28;20079;-74
2021/03/24 00:25:53;;;;;;;73.68;34.88;;;6.30;99.90;;;;;;5081866;28;20526;-73
2021/03/24 00:28:20;;;;;;;71.50;33.90;;;6.20;99.90;;;;;;5079459;28;20113;-73
2021/03/24 00:30:48;;;;;;;74.47;34.95;;;6.20;99.90;;;;;;5083947;28;20115;-73
2021/03/24 00:33:17;;;;;;;73.35;35.10;;;6.20;99.90;;;;;;5091338;28;20051;-73
2021/03/24 00:35:43;;;;;;;75.65;35.40;;;6.20;99.90;;;;;;5092268;28;20093;-71
2021/03/24 00:38:10;;;;;;;72.95;34.42;;;6.20;99.90;;;;;;5068114;28;20450;-71
2021/03/24 00:40:39;;;;;;;74.38;35.03;;;6.10;99.90;;;;;;5071377;28;20067;-70
2021/03/24 00:43:05;;;;;;;75.53;35.33;;;6.10;99.90;;;;;;5091274;28;20027;-71
2021/03/24 00:45:35;;;;;;;74.72;35.30;;;6.20;99.90;;;;;;5073173;28;20039;-72
2021/03/24 00:48:02;;;;;;;74.03;34.70;;;6.10;99.90;;;;;;5091010;28;20063;-72
2021/03/24 00:50:30;;;;;;;75.03;35.22;;;6.10;99.90;;;;;;5091523;28;20032;-72
2021/03/24 00:52:55;;;;;;;73.93;34.95;;;6.10;99.90;;;;;;5079403;28;20025;-70
2021/03/24 00:55:22;;;;;;;71.95;34.08;;;6.10;99.90;;;;;;5075323;28;20036;-70
2021/03/24 00:57:48;;;;;;;73.63;34.72;;;6.00;99.90;;;;;;5080413;28;20035;-72
2021/03/24 01:00:18;;;;;;;73.32;34.53;;;6.00;99.90;;;;;;5076972;28;20020;-71
2021/03/24 01:02:44;;;;;;;72.57;34.40;;;6.00;99.90;;;;;;5087971;28;20114;-72
2021/03/24 01:05:13;;;;;;;73.47;34.53;;;6.00;99.90;;;;;;5091980;28;20560;-71
2021/03/24 01:07:43;;;;;;;73.03;34.38;;;6.00;99.90;;;;;;5087243;28;20043;-71
2021/03/24 01:10:26;;;;;;;72.57;34.42;;;6.00;99.90;;;;;;5088697;28;20031;-72
2021/03/24 01:12:53;;;;;;;72.50;34.30;;;6.00;99.90;;;;;;5059646;28;20459;-71
2021/03/24 01:15:19;;;;;;;74.55;35.00;;;6.30;99.90;;;;;;5069860;28;20458;-71
2021/03/24 01:17:46;;;;;;;74.18;34.65;;;5.90;99.90;;;;;;5091864;28;20032;-72
2021/03/24 01:20:15;;;;;;;73.57;34.75;;;5.90;99.90;;;;;;5090655;28;20032;-71
2021/03/24 01:22:41;;;;;;;74.78;34.88;;;5.90;99.90;;;;;;5087542;28;20978;-71
2021/03/24 01:25:08;;;;;;;72.85;34.22;;;5.90;99.90;;;;;;5088371;28;20035;-71
2021/03/24 01:27:34;;;;;;;73.85;34.65;;;5.90;99.90;;;;;;5057618;28;20067;-72
2021/03/24 01:29:59;;;;;;;73.78;34.67;;;6.00;99.90;;;;;;5088906;28;20063;-73
2021/03/24 01:32:25;;;;;;;74.15;34.75;;;5.90;99.90;;;;;;5092769;28;20462;-72
2021/03/24 01:34:51;;;;;;;72.63;34.28;;;5.90;99.90;;;;;;5093532;28;20020;-72
2021/03/24 01:37:30;;;;;;;71.78;33.92;;;6.00;99.90;;;;;;5089753;28;20028;-72
2021/03/24 01:39:55;;;;;;;72.47;34.15;;;6.00;99.90;;;;;;5087120;28;20028;-72
2021/03/24 01:42:21;;;;;;;73.88;34.70;;;5.90;99.90;;;;;;5096653;28;20032;-71
2021/03/24 01:45:09;;;;;;;74.65;34.92;;;5.90;99.90;;;;;;5095872;28;20035;-71
2021/03/24 01:47:36;;;;;;;74.28;34.75;;;5.90;99.90;;;;;;5096225;28;20542;-72
2021/03/24 01:50:05;;;;;;;74.78;35.08;;;5.90;99.90;;;;;;5095641;28;20428;-73
2021/03/24 01:52:31;;;;;;;72.00;34.00;;;5.90;99.90;;;;;;5096515;28;20028;-73
2021/03/24 01:54:57;;;;;;;75.03;35.08;;;5.80;99.90;;;;;;5096106;28;20024;-73
2021/03/24 01:57:26;;;;;;;74.85;34.90;;;5.80;99.90;;;;;;5077719;28;20347;-71
2021/03/24 01:59:54;;;;;;;74.25;34.70;;;5.90;99.90;;;;;;5095930;28;20035;-73
2021/03/24 02:02:34;;;;;;;75.57;35.08;;;5.80;99.90;;;;;;5096008;28;20020;-73
2021/03/24 02:05:00;;;;;;;74.40;34.88;;;5.80;99.90;;;;;;5095765;28;20377;-71
2021/03/24 02:07:33;;;;;;;74.88;35.05;;;5.80;99.90;;;;;;5096193;28;20060;-72
2021/03/24 02:09:58;;;;;;;75.68;35.22;;;5.80;99.90;;;;;;5095774;28;20103;-72
2021/03/24 02:12:42;;;;;;;75.97;35.17;;;5.80;99.90;;;;;;5095639;28;20103;-72
2021/03/24 02:15:21;;;;;;;76.10;35.53;;;5.80;99.90;;;;;;5095629;28;20470;-72
2021/03/24 02:17:47;;;;;;;75.93;35.10;;;5.80;99.90;;;;;;5095747;28;20493;-73
2021/03/24 02:20:18;;;;;;;76.10;35.35;;;5.80;99.90;;;;;;5095586;28;20051;-72
2021/03/24 02:22:52;;;;;;;74.70;34.70;;;5.70;99.90;;;;;;5095947;28;20414;-72
2021/03/24 02:25:24;;;;;;;73.22;34.30;;;5.70;99.90;;;;;;5095001;28;20409;-71
2021/03/24 02:27:56;;;;;;;74.35;34.75;;;5.80;99.90;;;;;;5095878;28;20382;-72
2021/03/24 02:30:35;;;;;;;74.32;34.75;;;5.70;99.90;;;;;;5078915;28;20448;-75
2021/03/24 02:33:11;;;;;;;67.95;33.47;;;5.80;99.90;;;;;;5094344;28;20104;-70
2021/03/24 02:35:42;;;;;;;76.57;35.13;;;5.80;99.90;;;;;;5095727;28;20028;-69
2021/03/24 02:38:09;;;;;;;74.35;34.50;;;5.80;99.90;;;;;;5095388;28;20502;-70
2021/03/24 02:40:38;;;;;;;79.53;36.15;;;5.80;99.90;;;;;;5095051;28;20063;-70
2021/03/24 02:43:05;;;;;;;76.60;35.47;;;5.70;99.90;;;;;;5094083;28;20102;-70
2021/03/24 02:45:38;;;;;;;86.38;38.08;;;5.70;99.90;;;;;;5095641;28;20020;-70
2021/03/24 02:48:06;;;;;;;;;;;5.70;99.90;;;;;;5095587;28;20020;-71
2021/03/24 02:50:33;;;;;;;82.05;36.88;;;5.70;99.90;;;;;;5095459;28;20033;-70
2021/03/24 02:53:00;;;;;;;81.57;36.90;;;5.70;99.90;;;;;;5094999;28;20024;-69
2021/03/24 02:55:27;;;;;;;82.38;36.85;;;5.60;99.90;;;;;;5095205;28;20016;-69
2021/03/24 02:57:54;;;;;;;83.78;37.65;;;5.60;99.90;;;;;;5095201;28;20032;-69
2021/03/24 03:00:21;;;;;;;84.15;37.35;;;5.60;99.90;;;;;;5094764;28;20370;-70
2021/03/24 03:02:54;;;;;;;83.43;37.17;;;5.60;99.90;;;;;;5095058;28;20115;-69
2021/03/24 03:05:31;;;;;;;84.07;37.28;;;5.60;99.90;;;;;;5094876;28;20085;-69
2021/03/24 03:08:02;;;;;;;86.28;37.83;;;5.60;99.90;;;;;;5095139;28;20046;-70
2021/03/24 03:11:06;;;;;;;85.05;37.63;;;5.60;99.90;;;;;;5095165;28;20085;-68
2021/03/24 03:13:36;;;;;;;;;;;5.50;99.90;;;;;;5095230;28;20054;-69
2021/03/24 03:16:02;;;;;;;86.07;38.03;;;5.50;99.90;;;;;;5094517;28;19951;-69
2021/03/24 03:18:31;;;;;;;84.95;37.38;;;5.40;99.90;;;;;;5094554;28;20078;-69
2021/03/24 03:21:00;;;;;;;88.25;38.40;;;5.40;99.90;;;;;;5094343;28;20032;-70
2021/03/24 03:23:29;;;;;;;86.38;37.55;;;5.40;99.90;;;;;;5094663;28;20097;-69
2021/03/24 03:26:08;;;;;;;87.38;38.08;;;5.40;99.90;;;;;;5094905;28;20024;-69
2021/03/24 03:28:36;;;;;;;87.95;38.28;;;5.30;99.90;;;;;;5094056;28;20028;-69
2021/03/24 03:31:07;;;;;;;85.68;37.60;;;5.30;99.90;;;;;;5094619;28;20020;-70
2021/03/24 03:33:36;;;;;;;82.35;36.60;;;5.20;99.90;;;;;;5094576;28;20528;-70
2021/03/24 03:36:03;;;;;;;79.93;35.97;;;5.30;99.90;;;;;;5094023;28;20028;-69
2021/03/24 03:38:32;;;;;;;82.03;36.53;;;5.30;99.90;;;;;;5094593;28;20028;-70
2021/03/24 03:40:59;;;;;;;84.85;37.42;;;5.30;99.90;;;;;;5094060;28;20497;-70
2021/03/24 03:43:26;;;;;;;82.78;36.63;;;5.20;99.90;;;;;;5093892;28;20020;-71
2021/03/24 03:45:54;;;;;;;85.70;37.60;;;5.20;99.90;;;;;;5076103;28;20036;-70
2021/03/24 03:48:21;;;;;;;85.97;37.67;;;5.20;99.90;;;;;;5093903;28;20052;-70
2021/03/24 03:50:53;;;;;;;82.88;36.85;;;5.10;99.90;;;;;;5093767;28;20028;-73
2021/03/24 03:53:53;;;;;;;82.60;36.65;;;5.10;99.90;;;;;;5094040;28;20031;-72
2021/03/24 03:56:25;;;;;;;81.72;36.40;;;5.10;99.90;;;;;;5093785;28;20038;-72
2021/03/24 03:59:02;;;;;;;82.50;36.33;;;5.20;99.90;;;;;;5094307;28;20027;-73
2021/03/24 04:01:32;;;;;;;87.05;37.83;;;5.10;99.90;;;;;;5076642;28;20386;-72
2021/03/24 04:04:21;;;;;;;86.80;37.83;;;5.10;99.90;;;;;;5093548;28;20027;-72
2021/03/24 04:06:59;;;;;;;85.45;37.33;;;5.10;99.90;;;;;;5050338;28;20033;-72
2021/03/24 04:09:26;;;;;;;82.15;36.55;;;5.10;99.90;;;;;;5067294;28;20024;-72
2021/03/24 04:11:53;;;;;;;84.88;37.17;;;5.10;99.90;;;;;;5093253;28;20536;-72
2021/03/24 04:14:23;;;;;;;85.28;37.47;;;5.10;99.90;;;;;;5093957;28;20518;-72
2021/03/24 04:16:51;;;;;;;86.50;37.63;;;5.10;99.90;;;;;;5093753;28;20081;-73
2021/03/24 04:19:22;;;;;;;89.70;38.45;;;5.10;99.90;;;;;;5093339;28;20059;-72
2021/03/24 04:21:58;;;;;;;92.95;39.15;;;5.10;99.90;;;;;;5093749;28;20024;-72
2021/03/24 04:24:40;;;;;;;99.03;40.67;;;5.10;99.90;;;;;;5093184;28;20068;-72
2021/03/24 04:27:09;;;;;;;102.38;41.55;;;5.10;99.90;;;;;;5093239;28;20064;-70
2021/03/24 04:29:47;;;;;;;103.13;41.53;;;5.10;99.90;;;;;;5093422;28;20598;-71
2021/03/24 04:32:14;;;;;;;100.43;41.20;;;5.20;99.90;;;;;;5093228;28;20024;-72
2021/03/24 04:34:41;;;;;;;103.97;41.88;;;5.10;99.90;;;;;;5075382;28;20044;-71
2021/03/24 04:37:25;;;;;;;102.43;41.70;;;5.20;99.90;;;;;;5093413;28;20062;-72
2021/03/24 04:40:14;;;;;;;97.80;40.67;;;5.10;99.90;;;;;;5092841;28;20016;-71
2021/03/24 04:42:51;;;;;;;98.78;40.90;;;5.10;99.90;;;;;;5091937;28;20032;-71
2021/03/24 04:45:26;;;;;;;90.80;38.75;;;5.20;99.90;;;;;;5092706;28;20028;-72
2021/03/24 04:47:54;;;;;;;89.45;38.35;;;5.20;99.90;;;;;;5091475;28;20035;-73
2021/03/24 04:50:28;;;;;;;90.03;38.95;;;5.30;99.90;;;;;;5089887;28;20020;-71
2021/03/24 04:52:58;;;;;;;85.65;37.70;;;5.20;99.90;;;;;;5088404;28;20020;-71
2021/03/24 04:55:26;;;;;;;83.50;36.95;;;5.20;99.90;;;;;;5089240;28;20073;-70
2021/03/24 04:58:00;;;;;;;83.90;37.15;;;5.10;99.90;;;;;;5089777;28;20028;-70
2021/03/24 05:00:40;;;;;;;80.70;36.15;;;5.10;99.90;;;;;;5088265;28;20383;-70
2021/03/24 05:03:19;;;;;;;82.65;36.63;;;5.10;99.90;;;;;;5091485;28;20032;-69
2021/03/24 05:05:51;;;;;;;81.93;36.22;;;5.20;99.90;;;;;;5083280;28;20024;-72
2021/03/24 05:08:49;;;;;;;76.40;35.03;;;5.10;99.90;;;;;;5092073;28;20035;-70
2021/03/24 05:11:17;;;;;;;74.18;34.83;;;5.10;99.90;;;;;;5034654;28;20025;-71
2021/03/24 05:13:51;;;;;;;72.93;34.63;;;5.20;99.90;;;;;;5033962;28;20030;-70
2021/03/24 05:16:24;;;;;;;82.80;36.63;;;5.20;99.90;;;;;;5034682;28;20028;-69
2021/03/24 05:18:55;;;;;;;75.85;35.05;;;5.20;99.90;;;;;;5017768;28;20477;-71
2021/03/24 05:21:26;;;;;;;82.55;36.90;;;5.30;99.90;;;;;;5034251;28;20079;-70
2021/03/24 05:23:57;;;;;;;70.97;34.35;;;5.30;99.90;;;;;;5034143;28;20045;-70
2021/03/24 05:26:42;;;;;;;73.05;34.30;;;5.30;99.90;;;;;;5034461;28;20460;-71
2021/03/24 05:29:23;;;;;;;72.93;34.70;;;5.30;99.90;;;;;;5017224;28;20069;-70
2021/03/24 05:31:53;;;;;;;75.25;35.13;;;5.40;99.90;;;;;;5034419;28;20041;-70
2021/03/24 05:34:40;;;;;;;70.75;33.90;;;5.40;99.90;;;;;;5033785;28;20053;-70
2021/03/24 05:37:10;;;;;;;71.93;34.97;;;5.40;99.90;;;;;;5034217;28;20045;-71
2021/03/24 05:39:41;;;;;;;70.75;33.90;;;5.50;99.90;;;;;;5034000;28;20033;-71
2021/03/24 05:42:32;;;;;;;72.05;34.50;;;5.50;99.90;;;;;;5017316;28;20029;-70
2021/03/24 05:45:26;;;;;;;73.35;35.03;;;5.50;99.90;;;;;;5034315;28;20026;-72
2021/03/24 05:48:23;;;;;;;70.43;34.03;;;5.60;99.90;;;;;;5089532;28;20044;-70
2021/03/24 05:51:20;;;;;;;71.03;34.08;;;5.60;99.90;;;;;;5084257;28;20024;-72
2021/03/24 05:54:07;;;;;;;74.40;34.65;;;5.60;99.90;;;;;;5084980;28;20462;-71
2021/03/24 05:56:58;;;;;;;74.00;34.65;;;5.60;99.90;;;;;;5096596;28;20076;-70
2021/03/24 05:59:45;;;;;;;76.13;35.78;;;5.70;99.90;;;;;;5078442;28;20032;-71
2021/03/24 06:02:38;;;;;;;69.53;33.72;;;5.70;99.90;;;;;;5058074;28;20099;-71
2021/03/24 06:05:13;;;;;;;68.45;33.42;;;5.60;99.90;;;;;;5094339;28;20051;-71
2021/03/24 06:08:26;;;;;;;68.35;33.83;;;5.60;99.90;;;;;;5096004;28;20485;-71
2021/03/24 06:11:18;;;;;;;68.85;34.00;;;5.60;99.90;;;;;;5013457;28;20109;-71
2021/03/24 06:14:20;;;;;;;67.32;33.55;;;5.70;99.90;;;;;;5012457;28;20401;-71
2021/03/24 06:17:23;;;;;;;64.35;33.15;;;5.70;99.90;;;;;;5013421;28;20117;-70
2021/03/24 06:19:55;;;;;;;65.10;33.25;;;5.70;99.90;;;;;;5013875;28;20062;-70
2021/03/24 06:22:30;;;;;;;67.82;33.47;;;5.80;99.90;;;;;;5013233;28;20034;-69
2021/03/24 06:25:01;;;;;;;69.18;33.90;;;5.80;99.90;;;;;;4996945;28;20108;-70
2021/03/24 06:27:39;;;;;;;72.53;34.92;;;5.80;99.90;;;;;;5013425;28;20065;-68
2021/03/24 06:30:34;;;;;;;66.90;33.45;;;5.80;99.90;;;;;;5013238;28;20366;-69
2021/03/24 06:33:29;;;;;;;78.95;36.47;;;5.80;99.90;;;;;;4977550;28;20035;-70
2021/03/24 06:36:18;;;;;;;62.65;32.83;;;5.90;99.90;;;;;;5012881;28;20022;-70
2021/03/24 06:39:14;;;;;;;61.53;32.45;;;5.90;99.90;;;;;;5012620;28;20609;-69
2021/03/24 06:41:58;;;;;;;63.60;33.25;;;5.90;99.90;;;;;;5000543;28;20069;-69
2021/03/24 06:44:46;;;;;;;60.40;32.53;;;6.00;99.90;;;;;;5012778;28;20030;-69
2021/03/24 06:47:30;;;;;;;62.05;32.88;;;6.00;99.90;;;;;;5060486;28;20069;-69
2021/03/24 06:50:33;;;;;;;60.70;32.33;;;6.10;99.90;;;;;;5095434;28;20045;-69
2021/03/24 06:53:36;;;;;;;63.40;32.80;;;6.30;99.90;;;;;;5095233;28;20458;-68
2021/03/24 06:56:47;;;;;;;68.65;34.55;;;6.30;99.90;;;;;;5095107;28;20421;-69
2021/03/24 06:59:43;;;;;;;79.72;37.10;;;6.50;99.90;;;;;;5086048;28;20378;-69
2021/03/24 07:02:18;;;;;;;78.20;36.72;;;6.50;99.90;;;;;;5082089;28;20028;-70
2021/03/24 07:05:06;;;;;;;77.25;36.42;;;6.60;99.90;;;;;;5092643;28;20036;-70
2021/03/24 07:08:08;;;;;;;62.53;32.72;;;6.60;99.90;;;;;;5075904;28;20042;-70
2021/03/24 07:10:49;;;;;;;60.28;32.60;;;6.50;99.90;;;;;;5075981;28;20032;-72
2021/03/24 07:13:46;;;;;;;60.28;32.15;;;6.40;99.90;;;;;;5085178;28;20046;-69
2021/03/24 07:17:00;;;;;;;68.95;34.78;;;6.50;99.90;;;;;;5090597;28;20032;-70
2021/03/24 07:19:49;;;;;;;75.95;36.13;;;6.60;99.90;;;;;;5066479;28;20039;-69
2021/03/24 07:22:39;;;;;;;52.53;31.58;;;6.70;99.90;;;;;;5067750;28;20097;-70
2021/03/24 07:25:40;;;;;;;57.45;32.22;;;6.80;99.90;;;;;;5088418;28;20085;-69
2021/03/24 07:28:43;;;;;;;50.60;31.13;;;6.80;99.90;;;;;;5084988;28;20461;-69
2021/03/24 07:31:27;;;;;;;48.50;30.33;;;6.70;99.90;;;;;;5087752;28;20425;-70
2021/03/24 07:34:01;;;;;;;;;;;6.70;99.90;;;;;;5084859;28;20024;-70
2021/03/24 07:37:04;;;;;;;46.00;30.02;;;6.80;99.90;;;;;;5084175;28;19908;-70
2021/03/24 07:39:54;;;;;;;46.97;30.55;;;7.30;99.90;;;;;;5093301;28;20484;-70
2021/03/24 07:42:51;;;;;;;56.47;32.60;;;7.60;99.90;;;;;;5092909;28;20081;-70
2021/03/24 07:45:21;;;;;;;61.40;35.30;;;8.10;99.90;;;;;;5074668;28;20024;-69
2021/03/24 07:47:52;;;;;;;87.55;41.15;;;8.30;99.90;;;;;;5093366;28;20202;-68
2021/03/24 07:50:40;;;;;;;84.70;39.42;;;8.70;99.90;;;;;;5087401;28;20358;-68
2021/03/24 07:53:23;;;;;;;83.32;38.88;;;8.40;99.90;;;;;;5092226;28;20081;-69
2021/03/24 07:56:08;;;;;;;68.65;34.80;;;8.10;99.90;;;;;;5093472;28;20069;-72
2021/03/24 07:59:08;;;;;;;68.78;34.65;;;7.80;99.90;;;;;;5087737;28;20474;-71
2021/03/24 08:02:11;;;;;;;69.60;34.97;;;7.90;99.90;;;;;;5089872;28;20070;-69
2021/03/24 08:05:04;;;;;;;69.47;35.35;;;8.10;99.90;;;;;;5091247;28;20028;-69
2021/03/24 08:08:10;;;;;;;69.30;35.20;;;8.00;99.90;;;;;;5091093;28;20040;-68
2021/03/24 08:10:54;;;;;;;69.80;35.53;;;8.40;99.90;;;;;;5091985;28;20036;-68
2021/03/24 08:13:52;;;;;;;72.97;36.30;;;8.60;99.90;;;;;;5091670;28;20020;-68
2021/03/24 08:16:24;;;;;;;86.10;40.05;;;8.40;99.90;;;;;;5071006;28;20028;-70
2021/03/24 08:18:55;;;;;;;88.28;40.50;;;8.30;99.90;;;;;;5092213;28;20374;-68
2021/03/24 08:21:39;;;;;;;79.25;38.08;;;8.60;99.90;;;;;;5092495;28;20462;-71
2021/03/24 08:24:23;;;;;;;;;;;8.50;99.90;;;;;;5090298;28;20115;-70
2021/03/24 08:26:55;;;;;;;93.43;41.50;;;8.20;99.90;;;;;;5092359;28;19904;-69
2021/03/24 08:29:33;;;;;;;91.07;40.35;;;8.10;96.80;;;;;;5079829;28;20042;-69
2021/03/24 08:32:17;;;;;;;96.43;42.05;;;8.00;96.30;;;;;;5084911;28;20377;-68
2021/03/24 08:35:13;;;;;;;95.00;41.63;;;8.20;96.60;;;;;;5082214;28;20422;-70
2021/03/24 08:38:05;;;;;;;69.97;35.15;;;8.30;91.30;;;;;;5071874;28;20037;-70
2021/03/24 08:40:59;;;;;;;85.50;39.33;;;8.00;82.20;;;;;;5087897;28;20032;-70
2021/03/24 08:43:39;;;;;;;93.13;41.67;;;8.20;83.10;;;;;;5079574;28;20367;-70
2021/03/24 08:46:42;;;;;;;88.15;40.13;;;8.10;85.60;;;;;;5091673;28;20480;-70
2021/03/24 08:49:18;;;;;;;87.93;40.05;;;8.10;84.90;;;;;;5085426;28;20067;-70
2021/03/24 08:52:14;;;;;;;91.95;41.15;;;8.00;87.10;;;;;;5081975;28;20027;-70
2021/03/24 08:55:14;;;;;;;87.55;39.65;;;8.10;88.50;;;;;;5089456;28;20445;-70
2021/03/24 08:57:45;;;;;;;88.40;40.28;;;8.60;82.00;;;;;;5090623;28;20028;-70
2021/03/24 09:00:33;;;;;;;85.35;39.38;;;8.50;75.70;;;;;;5092349;28;20020;-69
2021/03/24 09:03:30;;;;;;;88.55;40.90;;;8.40;71.60;;;;;;5061381;28;20482;-71
2021/03/24 09:06:09;;;;;;;60.50;32.80;;;8.70;72.00;;;;;;5090342;28;20028;-72
2021/03/24 09:09:07;;;;;;;62.85;33.55;;;9.10;72.80;;;;;;5064464;28;20028;-71
2021/03/24 09:11:53;;;;;;;63.45;33.80;;;9.10;70.70;;;;;;5090283;28;20115;-69
2021/03/24 09:14:37;;;;;;;59.53;32.67;;;8.60;67.60;;;;;;5086674;28;20085;-75
2021/03/24 09:17:18;;;;;;;60.75;33.25;;;8.50;68.70;;;;;;5079372;28;20031;-70
2021/03/24 09:20:02;;;;;;;59.85;33.03;;;8.90;70.50;;;;;;5087815;28;20078;-70
2021/03/24 09:22:45;;;;;;;65.70;34.80;;;8.90;68.70;;;;;;5060785;28;20362;-70
2021/03/24 09:25:41;;;;;;;60.22;33.35;;;8.60;69.20;;;;;;5086689;28;20875;-69
2021/03/24 09:28:44;;;;;;;80.63;38.40;;;8.70;69.30;;;;;;5088963;28;20035;-69
2021/03/24 09:31:21;;;;;;;68.75;35.60;;;8.80;69.90;;;;;;5088489;28;20026;-69
2021/03/24 09:33:58;;;;;;;65.28;34.58;;;9.00;68.00;;;;;;5090052;28;20032;-71
2021/03/24 09:36:52;;;;;;;63.10;34.05;;;9.00;68.90;;;;;;5089974;28;20458;-71
2021/03/24 09:39:22;;;;;;;64.22;34.40;;;8.70;64.50;;;;;;5072971;28;20027;-71
2021/03/24 09:42:29;;;;;;;59.90;33.10;;;8.90;64.80;;;;;;5090786;28;20144;-71
2021/03/24 09:45:05;;;;;;;61.13;33.40;;;9.30;62.90;;;;;;5063700;28;20116;-67
2021/03/24 09:47:33;;;;;;;65.63;34.97;;;9.30;62.80;;;;;;5090009;28;20359;-69
2021/03/24 09:50:33;;;;;;;58.17;32.58;;;9.60;61.60;;;;;;5090670;28;20016;-69
2021/03/24 09:53:22;;;;;;;57.55;33.08;;;9.70;59.40;;;;;;5080710;28;20048;-68
2021/03/24 09:56:04;;;;;;;73.70;37.63;;;10.20;59.60;;;;;;5077121;28;20150;-72
2021/03/24 09:59:13;;;;;;;59.25;33.08;;;10.10;58.40;;;;;;5082801;28;20032;-69
2021/03/24 10:02:04;;;;;;;64.00;34.78;;;9.80;58.40;;;;;;5008343;28;20037;-70
2021/03/24 10:04:39;;;;;;;58.60;33.00;;;9.60;57.70;;;;;;5022568;28;20037;-70
2021/03/24 10:07:14;;;;;;;62.08;34.03;;;9.50;58.60;;;;;;5031777;28;20030;-70
2021/03/24 10:10:16;;;;;;;56.33;32.10;;;9.20;58.10;;;;;;5019756;28;20042;-70
2021/03/24 10:13:18;;;;;;;53.70;31.45;;;9.30;55.20;;;;;;5021089;28;20041;-69
2021/03/24 10:15:48;;;;;;;56.65;32.40;;;9.60;56.10;;;;;;5032944;28;20025;-69
2021/03/24 10:18:55;;;;;;;58.22;32.83;;;9.40;56.20;;;;;;5033341;28;20063;-69
2021/03/24 10:21:27;;;;;;;46.85;29.38;;;9.60;55.50;;;;;;5007754;28;20097;-71
2021/03/24 10:24:15;;;;;;;50.20;30.63;;;9.80;56.00;;;;;;5018796;28;20053;-69
2021/03/24 10:27:08;;;;;;;51.03;30.92;;;9.80;55.00;;;;;;5016111;28;20072;-71
2021/03/24 10:30:02;;;;;;;54.40;31.70;;;9.80;55.10;;;;;;5005303;28;20081;-74
2021/03/24 10:33:00;;;;;;;45.63;29.13;;;10.00;55.20;;;;;;4994258;28;20492;-70
2021/03/24 10:35:45;;;;;;;48.03;30.00;;;9.90;55.70;;;;;;4997374;28;20507;-73
2021/03/24 10:38:26;;;;;;;50.33;31.52;;;9.80;54.50;;;;;;5001659;28;20042;-68
2021/03/24 10:41:16;;;;;;;54.13;32.05;;;9.80;54.80;;;;;;4987724;28;20033;-70
2021/03/24 10:43:45;;;;;;;58.10;32.28;;;9.60;54.90;;;;;;4995424;28;20031;-72
2021/03/24 10:46:19;;;;;;;56.50;31.52;;;9.70;54.70;;;;;;4999818;28;20102;-69
2021/03/24 10:49:09;;;;;;;65.05;34.83;;;9.20;54.30;;;;;;5004119;28;20488;-70
2021/03/24 10:51:41;;;;;;;56.35;32.17;;;9.30;53.70;;;;;;4991916;28;20061;-70
2021/03/24 10:54:21;;;;;;;66.57;35.13;;;9.60;53.50;;;;;;4993856;28;20034;-69
2021/03/24 10:56:56;;;;;;;59.92;33.00;;;9.60;53.90;;;;;;5087571;28;20682;-69
2021/03/24 10:59:34;;;;;;;54.25;31.40;;;9.60;53.30;;;;;;5088334;28;20463;-70
2021/03/24 11:02:16;;;;;;;57.88;32.80;;;9.80;53.10;;;;;;5090911;28;20020;-69
2021/03/24 11:04:54;;;;;;;55.13;31.80;;;10.00;53.70;;;;;;5087496;28;20359;-70
2021/03/24 11:07:26;;;;;;;51.83;30.85;;;10.10;53.10;;;;;;5091262;28;20102;-69
2021/03/24 11:10:27;;;;;;;49.40;30.67;;;10.30;52.60;;;;;;5090723;28;20031;-69
2021/03/24 11:13:01;;;;;;;50.03;30.55;;;10.20;51.40;;;;;;5082402;28;20462;-71
2021/03/24 11:16:08;;;;;;;51.22;30.55;;;10.10;50.10;;;;;;5087510;28;20537;-71
2021/03/24 11:18:46;;;;;;;52.42;31.45;;;10.60;51.40;;;;;;4981988;28;20073;-71
2021/03/24 11:21:33;;;;;;;55.30;33.10;;;10.70;51.00;;;;;;4986756;28;20061;-70
2021/03/24 11:24:23;;;;;;;69.13;36.78;;;10.60;51.80;;;;;;4985968;28;20109;-71
2021/03/24 11:27:17;;;;;;;53.83;31.92;;;10.50;49.40;;;;;;4990719;28;20038;-74
2021/03/24 11:29:56;;;;;;;64.40;35.83;;;10.60;49.50;;;;;;4980390;28;20042;-71
2021/03/24 11:32:38;;;;;;;93.55;42.45;;;10.80;49.50;;;;;;4978226;28;20034;-71
2021/03/24 11:35:35;;;;;;;105.20;46.15;;;10.20;48.90;;;;;;4985095;28;20030;-72
2021/03/24 11:38:54;;;;;;;107.90;44.88;;;10.40;48.40;;;;;;4973623;28;20140;-72
2021/03/24 11:41:25;;;;;;;72.75;36.65;;;10.40;48.10;;;;;;4964440;28;20034;-71
2021/03/24 11:44:07;;;;;;;76.13;37.05;;;10.40;46.40;;;;;;4992114;28;20031;-71
2021/03/24 11:46:42;;;;;;;71.77;36.87;;;10.50;47.30;;;;;;4973331;28;20034;-72
2021/03/24 11:49:46;;;;;;;70.40;36.35;;;10.40;47.30;;;;;;4975551;28;20042;-70
2021/03/24 11:52:22;;;;;;;70.00;36.47;;;10.50;47.50;;;;;;4957713;28;20038;-71
2021/03/24 11:54:48;;;;;;;63.45;34.10;;;10.50;47.00;;;;;;4969384;28;20026;-70
2021/03/24 11:57:43;;;;;;;68.25;35.92;;;10.60;47.60;;;;;;4992197;28;20034;-73
2021/03/24 12:00:09;;;;;;;60.30;33.65;;;10.50;45.20;;;;;;4986353;28;20026;-70
2021/03/24 12:02:50;;;;;;;57.60;32.38;;;10.20;43.40;;;;;;4994289;28;20469;-69
2021/03/24 12:05:20;;;;;;;67.05;35.15;;;10.40;44.70;;;;;;4998274;28;20033;-75
2021/03/24 12:08:05;;;;;;;110.60;45.58;;;10.30;43.60;;;;;;5005267;28;20041;-72
2021/03/24 12:10:42;;;;;;;116.05;44.92;;;10.10;43.40;;;;;;5003931;28;20170;-73
2021/03/24 12:13:19;;;;;;;108.88;44.75;;;10.30;44.50;;;;;;5001975;28;20037;-72
2021/03/24 12:16:06;;;;;;;109.70;44.90;;;10.30;43.90;;;;;;4998581;28;20037;-74
2021/03/24 12:18:54;;;;;;;114.10;45.72;;;10.20;43.90;;;;;;4982351;28;20041;-75
2021/03/24 12:21:32;;;;;;;100.82;43.92;;;10.10;44.90;;;;;;5000624;28;20026;-74
2021/03/24 12:24:06;;;;;;;107.15;43.20;;;10.20;45.70;;;;;;5001325;28;20521;-71
2021/03/24 12:26:37;;;;;;;74.32;37.00;;;10.40;46.20;;;;;;4997964;28;20034;-71
2021/03/24 12:29:13;;;;;;;86.28;41.15;;;10.50;44.50;;;;;;5090839;28;20032;-70
2021/03/24 12:31:55;;;;;;;63.08;34.08;;;10.40;43.70;;;;;;5083008;28;20024;-70
2021/03/24 12:34:23;;;;;;;63.13;33.90;;;10.40;43.60;;;;;;5091077;28;20059;-72
2021/03/24 12:36:59;;;;;;;61.47;32.58;;;10.40;44.30;;;;;;5091422;28;20051;-71
2021/03/24 12:39:30;;;;;;;60.25;33.28;;;10.40;44.50;;;;;;5091018;28;20129;-71
2021/03/24 12:42:26;;;;;;;64.47;34.65;;;10.70;45.40;;;;;;5092656;28;20031;-72
2021/03/24 12:44:53;;;;;;;64.55;34.67;;;10.70;44.70;;;;;;5090579;28;20024;-71
2021/03/24 12:47:40;;;;;;;104.47;43.55;;;10.80;44.40;;;;;;5091774;28;20501;-72
2021/03/24 12:50:08;;;;;;;101.55;43.80;;;10.90;46.00;;;;;;5079922;28;20025;-72
2021/03/24 12:52:58;;;;;;;72.18;37.22;;;11.00;45.30;;;;;;5090977;28;20027;-72
2021/03/24 12:55:24;;;;;;;50.95;30.88;;;10.90;45.40;;;;;;5090012;28;20024;-71
2021/03/24 12:58:11;;;;;;;56.25;32.17;;;10.70;45.00;;;;;;5090266;28;20044;-72
2021/03/24 13:01:07;;;;;;;95.70;41.50;;;10.50;43.40;;;;;;5080897;28;20080;-71
2021/03/24 13:04:01;;;;;;;122.15;47.42;;;10.60;44.70;;;;;;5086452;28;20024;-71
2021/03/24 13:06:39;;;;;;;115.90;45.33;;;10.30;44.00;;;;;;5062567;28;20033;-72
2021/03/24 13:09:22;;;;;;;71.65;36.22;;;10.80;45.10;;;;;;5089352;28;20089;-73
2021/03/24 13:12:10;;;;;;;69.97;36.05;;;10.90;45.90;;;;;;5090717;28;20059;-70
2021/03/24 13:14:58;;;;;;;73.47;37.15;;;10.80;45.90;;;;;;5072596;28;20016;-68
2021/03/24 13:17:36;;;;;;;70.93;36.25;;;10.70;44.80;;;;;;5083123;28;20028;-71
2021/03/24 13:20:16;;;;;;;67.82;35.53;;;10.80;45.10;;;;;;5068401;28;20429;-69
2021/03/24 13:23:14;;;;;;;65.43;34.95;;;10.90;45.00;;;;;;5085441;28;20076;-70
2021/03/24 13:25:52;;;;;;;63.17;34.42;;;11.20;48.40;;;;;;5077694;28;20027;-70
2021/03/24 13:28:27;;;;;;;62.35;34.25;;;11.10;44.60;;;;;;5093498;28;20043;-72
2021/03/24 13:31:03;;;;;;;63.28;34.50;;;10.90;44.50;;;;;;5063470;28;20031;-71
2021/03/24 13:33:39;;;;;;;67.50;35.67;;;11.00;45.60;;;;;;5088236;28;20028;-71
2021/03/24 13:36:18;;;;;;;64.43;34.65;;;11.00;45.10;;;;;;5088835;28;20103;-70
2021/03/24 13:38:54;;;;;;;61.90;33.90;;;11.00;44.70;;;;;;5088581;28;20028;-71